createdAt,value
2022-07-31T00:01:33.074Z,17.87
2022-07-31T00:04:34.773Z,17.82
2022-07-31T00:07:40.255Z,17.80
2022-07-31T00:10:42.469Z,17.73
2022-07-31T00:13:57.420Z,17.66
2022-07-31T00:17:00.626Z,17.62
2022-07-31T00:20:02.480Z,17.57
2022-07-31T00:23:05.483Z,17.55
2022-07-31T00:26:07.748Z,17.53
2022-07-31T00:29:10.970Z,17.49
2022-07-31T00:32:17.745Z,17.42
2022-07-31T00:35:19.836Z,17.34
2022-07-31T00:38:27.288Z,17.27
2022-07-31T00:41:37.161Z,17.21
2022-07-31T00:44:38.878Z,17.20
2022-07-31T00:47:40.681Z,17.21
2022-07-31T00:50:42.928Z,17.21
2022-07-31T00:53:45.934Z,17.18
2022-07-31T00:56:47.737Z,17.07
2022-07-31T00:59:49.560Z,16.90
2022-07-31T01:02:51.250Z,16.79
2022-07-31T01:05:53.115Z,16.70
2022-07-31T01:08:56.338Z,16.66
2022-07-31T01:12:00.838Z,16.58
2022-07-31T01:15:05.134Z,16.53
2022-07-31T01:18:08.354Z,16.45
2022-07-31T01:21:15.914Z,16.42
2022-07-31T01:24:37.839Z,16.35
2022-07-31T01:27:49.757Z,16.26
2022-07-31T01:31:17.289Z,16.24
2022-07-31T01:34:23.575Z,16.21
2022-07-31T01:37:30.329Z,16.23
2022-07-31T01:40:35.709Z,16.19
2022-07-31T01:43:43.075Z,16.14
2022-07-31T01:46:47.484Z,16.14
2022-07-31T01:49:49.625Z,16.14
2022-07-31T01:52:51.908Z,16.11
2022-07-31T01:56:02.852Z,16.15
2022-07-31T01:59:20.584Z,16.09
2022-07-31T02:02:27.122Z,16.03
2022-07-31T02:05:29.292Z,15.97
2022-07-31T02:08:32.438Z,15.94
2022-07-31T02:11:53.725Z,15.94
2022-07-31T02:14:56.797Z,15.96
2022-07-31T02:18:00.772Z,16.09
2022-07-31T02:21:05.739Z,16.18
2022-07-31T02:24:10.689Z,16.16
2022-07-31T02:27:54.220Z,16.12
2022-07-31T02:30:39.426Z,16.07
2022-07-31T02:33:45.316Z,15.97
2022-07-31T02:36:47.584Z,15.90
2022-07-31T02:39:50.000Z,15.82
2022-07-31T02:42:52.125Z,15.78
2022-07-31T02:45:54.635Z,15.80
2022-07-31T02:48:58.166Z,15.83
2022-07-31T02:51:59.904Z,15.85
2022-07-31T02:55:03.006Z,15.88
2022-07-31T02:58:04.830Z,15.89
2022-07-31T03:01:06.683Z,15.90
2022-07-31T03:04:10.331Z,15.95
2022-07-31T03:07:12.204Z,15.95
2022-07-31T03:10:14.134Z,15.92
2022-07-31T03:13:16.546Z,15.94
2022-07-31T03:16:19.753Z,15.92
2022-07-31T03:19:23.665Z,15.93
2022-07-31T03:22:25.336Z,15.86
2022-07-31T03:25:27.289Z,15.78
2022-07-31T03:28:29.274Z,15.68
2022-07-31T03:31:30.801Z,15.63
2022-07-31T03:34:33.852Z,15.56
2022-07-31T03:37:35.526Z,15.54
2022-07-31T03:40:37.202Z,15.49
2022-07-31T03:43:46.827Z,15.45
2022-07-31T03:46:49.690Z,15.44
2022-07-31T03:49:54.286Z,15.42
2022-07-31T03:52:56.475Z,15.37
2022-07-31T03:56:02.585Z,15.34
2022-07-31T03:59:04.504Z,15.32
2022-07-31T04:02:08.168Z,15.31
2022-07-31T04:05:14.405Z,15.34
2022-07-31T04:08:16.078Z,15.37
2022-07-31T04:11:17.821Z,15.42
2022-07-31T04:14:19.344Z,15.45
2022-07-31T04:17:20.996Z,15.47
2022-07-31T04:20:24.919Z,15.55
2022-07-31T04:23:32.436Z,15.62
2022-07-31T04:26:34.589Z,15.70
2022-07-31T04:29:36.438Z,15.77
2022-07-31T04:32:38.118Z,15.83
2022-07-31T04:35:42.298Z,15.88
2022-07-31T04:38:43.856Z,15.96
2022-07-31T04:41:45.463Z,16.01
2022-07-31T04:44:47.135Z,16.06
2022-07-31T04:47:48.731Z,16.11
2022-07-31T04:50:51.968Z,16.14
2022-07-31T04:53:53.575Z,16.17
2022-07-31T04:56:55.844Z,16.20
2022-07-31T05:00:00.211Z,16.22
2022-07-31T05:03:02.685Z,16.26
2022-07-31T05:06:12.288Z,16.31
2022-07-31T05:09:19.077Z,16.33
2022-07-31T05:12:20.830Z,16.34
2022-07-31T05:15:23.039Z,16.33
2022-07-31T05:18:24.568Z,16.35
2022-07-31T05:21:27.747Z,16.38
2022-07-31T05:24:33.058Z,16.39
2022-07-31T05:27:36.143Z,16.45
2022-07-31T05:30:40.795Z,16.54
2022-07-31T05:33:42.733Z,16.57
2022-07-31T05:36:45.794Z,16.62
2022-07-31T05:39:47.499Z,16.71
2022-07-31T05:42:49.060Z,16.81
2022-07-31T05:45:50.997Z,16.91
2022-07-31T05:48:52.568Z,16.98
2022-07-31T05:51:55.752Z,17.07
2022-07-31T05:54:57.386Z,17.15
2022-07-31T05:58:07.076Z,17.21
2022-07-31T06:01:08.683Z,17.26
2022-07-31T06:04:10.601Z,17.30
2022-07-31T06:07:13.691Z,17.35
2022-07-31T06:10:16.591Z,17.37
2022-07-31T06:13:19.275Z,17.38
2022-07-31T06:16:25.258Z,17.39
2022-07-31T06:19:27.122Z,17.41
2022-07-31T06:22:30.501Z,17.46
2022-07-31T06:25:38.767Z,17.51
2022-07-31T06:28:47.521Z,17.57
2022-07-31T06:31:50.105Z,17.62
2022-07-31T06:34:51.678Z,17.66
2022-07-31T06:37:54.585Z,17.67
2022-07-31T06:40:56.435Z,17.65
2022-07-31T06:43:58.214Z,17.64
2022-07-31T06:46:59.835Z,17.72
2022-07-31T06:50:05.629Z,17.83
2022-07-31T06:53:08.545Z,17.90
2022-07-31T06:56:11.141Z,17.94
2022-07-31T06:59:12.748Z,17.96
2022-07-31T07:02:14.504Z,18.08
2022-07-31T07:05:16.268Z,18.24
2022-07-31T07:08:19.567Z,18.42
2022-07-31T07:11:23.727Z,18.67
2022-07-31T07:14:25.504Z,18.79
2022-07-31T07:17:29.589Z,18.85
2022-07-31T07:20:31.439Z,18.90
2022-07-31T07:23:34.528Z,18.95
2022-07-31T07:26:36.298Z,19.01
2022-07-31T07:29:38.107Z,19.09
2022-07-31T07:32:39.731Z,19.17
2022-07-31T07:35:41.727Z,19.21
2022-07-31T07:38:44.836Z,19.23
2022-07-31T07:41:46.415Z,19.24
2022-07-31T07:44:50.859Z,19.27
2022-07-31T07:47:54.073Z,19.33
2022-07-31T07:51:08.802Z,19.38
2022-07-31T07:54:12.105Z,19.42
2022-07-31T07:57:14.484Z,19.46
2022-07-31T08:00:16.365Z,19.48
2022-07-31T08:03:51.085Z,19.47
2022-07-31T08:06:41.247Z,19.49
2022-07-31T08:09:44.162Z,19.52
2022-07-31T08:12:45.838Z,19.58
2022-07-31T08:15:47.473Z,19.58
2022-07-31T08:18:49.167Z,19.62
2022-07-31T08:21:50.673Z,19.72
2022-07-31T08:24:53.938Z,19.77
2022-07-31T08:27:55.792Z,19.89
2022-07-31T08:30:59.817Z,20.18
2022-07-31T08:34:01.471Z,20.36
2022-07-31T08:37:51.638Z,20.39
2022-07-31T08:40:28.763Z,20.51
2022-07-31T08:44:00.009Z,20.63
2022-07-31T08:47:01.759Z,20.91
2022-07-31T08:50:04.457Z,20.87
2022-07-31T08:53:06.693Z,20.86
2022-07-31T08:56:10.598Z,20.83
2022-07-31T08:59:12.125Z,20.97
2022-07-31T09:02:16.010Z,21.22
2022-07-31T09:05:17.751Z,21.34
2022-07-31T09:08:19.353Z,21.42
2022-07-31T09:11:23.380Z,21.58
2022-07-31T09:14:28.407Z,21.77
2022-07-31T09:17:34.888Z,21.69
2022-07-31T09:20:39.030Z,21.68
2022-07-31T09:23:45.258Z,21.60
2022-07-31T09:26:48.309Z,21.68
2022-07-31T09:29:49.936Z,21.81
2022-07-31T09:32:51.703Z,21.90
2022-07-31T09:35:58.302Z,21.81
2022-07-31T09:39:05.289Z,21.75
2022-07-31T09:42:16.897Z,21.77
2022-07-31T09:45:20.310Z,21.72
2022-07-31T09:48:26.611Z,21.82
2022-07-31T09:51:37.345Z,21.78
2022-07-31T09:54:38.952Z,21.90
2022-07-31T09:57:51.111Z,21.99
2022-07-31T10:00:54.079Z,21.96
2022-07-31T10:04:00.339Z,22.02
2022-07-31T10:07:02.683Z,22.04
2022-07-31T10:10:05.524Z,22.11
2022-07-31T10:13:11.006Z,22.25
2022-07-31T10:16:13.410Z,22.38
2022-07-31T10:19:15.707Z,22.38
2022-07-31T10:22:18.346Z,22.50
2022-07-31T10:25:20.913Z,22.48
2022-07-31T10:28:26.405Z,22.45
2022-07-31T10:31:31.162Z,22.43
2022-07-31T10:34:34.932Z,22.35
2022-07-31T10:37:39.596Z,22.26
2022-07-31T10:40:43.935Z,22.25
2022-07-31T10:43:51.193Z,22.26
2022-07-31T10:46:52.873Z,22.37
2022-07-31T10:49:54.516Z,22.67
2022-07-31T10:53:07.006Z,22.89
2022-07-31T10:56:13.756Z,22.91
2022-07-31T10:59:27.935Z,22.87
2022-07-31T11:02:30.663Z,22.80
2022-07-31T11:05:32.341Z,22.80
2022-07-31T11:08:54.478Z,22.76
2022-07-31T11:11:58.440Z,22.83
2022-07-31T11:15:01.970Z,22.94
2022-07-31T11:18:25.332Z,22.91
2022-07-31T11:21:40.031Z,22.96
2022-07-31T11:24:42.404Z,22.92
2022-07-31T11:27:47.407Z,22.87
2022-07-31T11:30:51.502Z,22.90
2022-07-31T11:33:53.158Z,23.03
2022-07-31T11:36:56.343Z,23.09
2022-07-31T11:39:58.197Z,23.27
2022-07-31T11:43:25.598Z,23.40
2022-07-31T11:46:30.315Z,23.41
2022-07-31T11:49:47.740Z,23.40
2022-07-31T11:52:51.132Z,23.44
2022-07-31T11:55:56.897Z,23.54
2022-07-31T11:59:00.662Z,23.47
2022-07-31T12:02:05.050Z,23.41
2022-07-31T12:05:07.242Z,23.53
2022-07-31T12:08:10.965Z,23.58
2022-07-31T12:11:12.987Z,23.53
2022-07-31T12:14:14.625Z,23.50
2022-07-31T12:17:21.197Z,23.51
2022-07-31T12:20:34.995Z,23.70
2022-07-31T12:23:41.894Z,23.94
2022-07-31T12:26:52.721Z,23.96
2022-07-31T12:29:54.674Z,23.84
2022-07-31T12:33:07.731Z,23.77
2022-07-31T12:36:13.606Z,23.79
2022-07-31T12:39:15.184Z,23.83
2022-07-31T12:42:21.562Z,23.97
2022-07-31T12:45:32.248Z,24.05
2022-07-31T12:48:40.110Z,23.93
2022-07-31T12:51:45.987Z,23.88
2022-07-31T12:54:49.244Z,23.87
2022-07-31T12:57:52.207Z,23.75
2022-07-31T13:00:54.981Z,23.79
2022-07-31T13:04:03.409Z,23.73
2022-07-31T13:07:05.614Z,23.68
2022-07-31T13:10:20.177Z,23.74
2022-07-31T13:13:24.034Z,23.56
2022-07-31T13:16:25.693Z,23.48
2022-07-31T13:19:28.905Z,23.50
2022-07-31T13:22:30.780Z,23.55
2022-07-31T13:25:32.714Z,23.71
2022-07-31T13:28:34.549Z,23.69
2022-07-31T13:31:36.058Z,23.52
2022-07-31T13:34:40.772Z,23.38
2022-07-31T13:37:43.306Z,23.18
2022-07-31T13:41:03.614Z,23.17
2022-07-31T13:44:05.982Z,22.99
2022-07-31T13:47:07.723Z,22.93
2022-07-31T13:50:11.011Z,22.91
2022-07-31T13:53:12.679Z,22.90
2022-07-31T13:56:14.352Z,22.92
2022-07-31T13:59:35.881Z,22.84
2022-07-31T14:02:37.454Z,22.82
2022-07-31T14:05:40.783Z,22.82
2022-07-31T14:08:50.283Z,22.89
2022-07-31T14:11:52.456Z,22.83
2022-07-31T14:14:53.948Z,22.73
2022-07-31T14:17:56.136Z,22.61
2022-07-31T14:20:59.071Z,22.43
2022-07-31T14:24:03.128Z,22.28
2022-07-31T14:27:04.830Z,22.10
2022-07-31T14:30:06.975Z,21.79
2022-07-31T14:33:08.639Z,21.57
2022-07-31T14:36:13.459Z,21.53
2022-07-31T14:39:15.237Z,21.48
2022-07-31T14:42:22.495Z,21.51
2022-07-31T14:45:27.596Z,21.53
2022-07-31T14:48:29.374Z,21.50
2022-07-31T14:51:32.596Z,21.43
2022-07-31T14:54:34.163Z,21.44
2022-07-31T14:57:35.954Z,21.47
2022-07-31T15:00:37.646Z,21.44
2022-07-31T15:03:39.291Z,21.42
2022-07-31T15:06:56.032Z,21.41
2022-07-31T15:10:04.296Z,21.44
2022-07-31T15:13:05.904Z,21.41
2022-07-31T15:16:09.571Z,21.45
2022-07-31T15:19:12.091Z,21.45
2022-07-31T15:22:19.171Z,21.55
2022-07-31T15:25:20.947Z,21.60
2022-07-31T15:28:22.610Z,21.63
2022-07-31T15:31:26.488Z,21.63
2022-07-31T15:34:28.131Z,21.61
2022-07-31T15:37:33.073Z,21.57
2022-07-31T15:40:34.931Z,21.60
2022-07-31T15:43:37.675Z,21.57
2022-07-31T15:46:42.968Z,21.61
2022-07-31T15:49:44.784Z,21.54
2022-07-31T15:52:48.256Z,21.36
2022-07-31T15:55:49.922Z,21.18
2022-07-31T15:58:53.922Z,20.96
2022-07-31T16:01:55.622Z,20.86
2022-07-31T16:05:11.021Z,20.79
2022-07-31T16:08:31.039Z,20.75
2022-07-31T16:12:04.601Z,20.66
2022-07-31T16:14:58.845Z,20.64
2022-07-31T16:18:00.515Z,20.61
2022-07-31T16:21:02.187Z,20.58
2022-07-31T16:24:05.816Z,20.63
2022-07-31T16:27:07.753Z,20.58
2022-07-31T16:30:09.921Z,20.66
2022-07-31T16:33:11.665Z,20.71
2022-07-31T16:36:13.529Z,20.83
2022-07-31T16:39:24.638Z,20.92
2022-07-31T16:42:26.301Z,20.92
2022-07-31T16:45:28.256Z,20.90
2022-07-31T16:48:29.965Z,20.90
2022-07-31T16:51:31.593Z,20.91
2022-07-31T16:54:34.605Z,21.05
2022-07-31T16:57:37.794Z,21.29
2022-07-31T17:00:39.949Z,21.31
2022-07-31T17:04:01.887Z,21.23
2022-07-31T17:07:05.334Z,21.23
2022-07-31T17:10:09.239Z,21.39
2022-07-31T17:13:11.245Z,21.44
2022-07-31T17:16:12.792Z,21.46
2022-07-31T17:19:14.637Z,21.41
2022-07-31T17:22:18.663Z,21.36
2022-07-31T17:25:22.861Z,21.30
2022-07-31T17:28:24.490Z,21.20
2022-07-31T17:31:26.497Z,21.12
2022-07-31T17:34:28.362Z,21.08
2022-07-31T17:37:30.164Z,21.04
2022-07-31T17:40:43.513Z,21.01
2022-07-31T17:43:50.585Z,20.97
2022-07-31T17:46:55.410Z,20.93
2022-07-31T17:49:59.546Z,20.90
2022-07-31T17:53:01.494Z,20.81
2022-07-31T17:56:05.503Z,20.79
2022-07-31T17:59:07.651Z,20.74
2022-07-31T18:02:09.714Z,20.71
2022-07-31T18:05:12.156Z,20.69
2022-07-31T18:08:13.760Z,20.65
2022-07-31T18:11:17.022Z,20.63
2022-07-31T18:14:19.186Z,20.59
2022-07-31T18:17:25.723Z,20.59
2022-07-31T18:20:27.504Z,20.57
2022-07-31T18:23:32.272Z,20.55
2022-07-31T18:26:38.095Z,20.53
2022-07-31T18:29:39.890Z,20.52
2022-07-31T18:32:42.969Z,20.49
2022-07-31T18:35:45.748Z,20.49
2022-07-31T18:38:47.939Z,20.47
2022-07-31T18:41:50.987Z,20.45
2022-07-31T18:44:52.744Z,20.43
2022-07-31T18:47:54.818Z,20.43
2022-07-31T18:51:01.467Z,20.42
2022-07-31T18:54:05.834Z,20.43
2022-07-31T18:57:09.143Z,20.36
2022-07-31T19:00:11.401Z,20.26
2022-07-31T19:03:12.995Z,20.14
2022-07-31T19:06:14.768Z,19.91
2022-07-31T19:09:18.132Z,19.67
2022-07-31T19:12:21.167Z,19.45
2022-07-31T19:15:23.849Z,19.23
2022-07-31T19:18:28.112Z,19.10
2022-07-31T19:21:42.457Z,18.95
2022-07-31T19:24:44.518Z,18.85
2022-07-31T19:27:49.400Z,18.83
2022-07-31T19:30:52.509Z,18.89
2022-07-31T19:33:54.224Z,18.90
2022-07-31T19:36:55.925Z,18.90
2022-07-31T19:39:57.615Z,18.82
2022-07-31T19:43:00.949Z,18.71
2022-07-31T19:46:11.187Z,18.63
2022-07-31T19:49:13.904Z,18.61
2022-07-31T19:52:15.771Z,18.65
2022-07-31T19:55:17.622Z,18.68
2022-07-31T19:58:23.517Z,18.71
2022-07-31T20:01:27.567Z,18.68
2022-07-31T20:04:29.203Z,18.64
2022-07-31T20:07:32.912Z,18.63
2022-07-31T20:10:34.527Z,18.69
2022-07-31T20:13:40.617Z,18.72
2022-07-31T20:16:42.178Z,18.73
2022-07-31T20:20:14.410Z,18.65
2022-07-31T20:23:06.001Z,18.61
2022-07-31T20:26:08.732Z,18.56
2022-07-31T20:29:11.738Z,18.54
2022-07-31T20:32:13.740Z,18.52
2022-07-31T20:35:31.046Z,18.53
2022-07-31T20:38:37.417Z,18.53
2022-07-31T20:41:39.155Z,18.52
2022-07-31T20:44:44.784Z,18.47
2022-07-31T20:47:49.617Z,18.46
2022-07-31T20:50:51.617Z,18.45
2022-07-31T20:53:53.806Z,18.46
2022-07-31T20:56:55.497Z,18.46
2022-07-31T20:59:58.452Z,18.45
2022-07-31T21:03:00.627Z,18.46
2022-07-31T21:06:03.655Z,18.44
2022-07-31T21:09:08.315Z,18.45
2022-07-31T21:12:10.071Z,18.42
2022-07-31T21:15:41.191Z,18.45
2022-07-31T21:18:36.399Z,18.46
2022-07-31T21:21:40.571Z,18.41
2022-07-31T21:24:42.535Z,18.34
2022-07-31T21:27:44.707Z,18.29
2022-07-31T21:30:48.176Z,18.22
2022-07-31T21:33:49.884Z,18.20
2022-07-31T21:36:51.766Z,18.18
2022-07-31T21:39:56.797Z,18.22
2022-07-31T21:42:58.969Z,18.21
2022-07-31T21:46:04.473Z,18.17
2022-07-31T21:49:09.078Z,18.18
2022-07-31T21:52:11.448Z,18.18
2022-07-31T21:55:16.386Z,18.14
2022-07-31T21:58:18.066Z,18.13
2022-07-31T22:01:21.297Z,18.13
2022-07-31T22:04:29.137Z,18.09
2022-07-31T22:07:41.435Z,18.09
2022-07-31T22:10:43.318Z,18.08
2022-07-31T22:13:45.169Z,18.08
2022-07-31T22:16:48.294Z,18.03
2022-07-31T22:19:50.322Z,18.05
2022-07-31T22:22:52.352Z,18.03
2022-07-31T22:25:54.160Z,18.02
2022-07-31T22:28:56.657Z,18.05
2022-07-31T22:31:59.994Z,17.98
2022-07-31T22:35:01.887Z,17.97
2022-07-31T22:38:03.543Z,17.96
2022-07-31T22:41:05.309Z,17.94
2022-07-31T22:44:12.339Z,17.92
2022-07-31T22:47:17.825Z,17.89
2022-07-31T22:50:19.652Z,17.86
2022-07-31T22:53:21.498Z,17.86
2022-07-31T22:56:23.477Z,17.81
2022-07-31T22:59:25.216Z,17.81
2022-07-31T23:02:28.373Z,17.83
2022-07-31T23:06:03.634Z,17.83
2022-07-31T23:08:54.890Z,17.83
2022-07-31T23:11:57.050Z,17.82
2022-07-31T23:14:58.897Z,17.77
2022-07-31T23:18:02.711Z,17.80
2022-07-31T23:21:08.319Z,17.80
2022-07-31T23:24:10.701Z,17.80
2022-07-31T23:27:12.504Z,17.83
2022-07-31T23:30:14.486Z,17.79
2022-07-31T23:33:20.642Z,17.79
2022-07-31T23:36:22.254Z,17.78
2022-07-31T23:39:24.371Z,17.79
2022-07-31T23:42:38.603Z,17.78
2022-07-31T23:45:40.225Z,17.82
2022-07-31T23:48:44.175Z,17.81
2022-07-31T23:51:46.327Z,17.79
2022-07-31T23:54:49.121Z,17.75
2022-07-31T23:57:51.023Z,17.77
